Time;durP1;ratioP1;P1;durP2;ratioP2;P2;SDS_P1;SDS_P2;PMS_P1;PMS_P2;Temp;Humidity;BMP_temperature;BMP_pressure;BME280_temperature;BME280_humidity;BME280_pressure;Samples;Min_cycle;Max_cycle;Signal;HPM_P1;HPM_P2
2023/03/12 00:00:45;;;;;;;5.27;2.67;;;3.00;99.90;;;;;;5031423;28;20465;-67
2023/03/12 00:03:11;;;;;;;3.20;2.30;;;3.00;99.90;;;;;;5014433;28;20474;-68
2023/03/12 00:05:38;;;;;;;5.47;2.73;;;3.00;99.90;;;;;;5030142;28;20234;-68
2023/03/12 00:08:04;;;;;;;3.40;2.50;;;3.00;99.90;;;;;;5027493;28;20224;-68
2023/03/12 00:10:30;;;;;;;2.10;2.00;;;3.00;99.90;;;;;;5047389;28;20519;-68
2023/03/12 00:12:55;;;;;;;2.50;2.13;;;3.00;99.90;;;;;;5046945;28;20559;-69
2023/03/12 00:15:21;;;;;;;2.67;2.30;;;3.00;99.90;;;;;;5028425;28;20227;-68
2023/03/12 00:17:47;;;;;;;1.60;1.50;;;3.00;99.90;;;;;;5012506;28;20232;-68
2023/03/12 00:20:13;;;;;;;2.33;2.13;;;3.00;99.90;;;;;;5032226;28;20218;-66
2023/03/12 00:22:39;;;;;;;3.60;2.10;;;2.90;99.90;;;;;;5031066;28;20218;-68
2023/03/12 00:25:10;;;;;;;1.90;1.77;;;2.90;99.90;;;;;;5043434;28;20525;-67
2023/03/12 00:27:35;;;;;;;4.17;2.00;;;2.90;99.90;;;;;;5031277;28;20250;-67
2023/03/12 00:30:02;;;;;;;2.03;1.83;;;2.90;99.90;;;;;;5003857;28;20930;-67
2023/03/12 00:32:28;;;;;;;3.73;1.97;;;2.90;99.90;;;;;;5014970;28;20696;-67
2023/03/12 00:34:55;;;;;;;1.83;1.63;;;2.90;99.90;;;;;;5014021;28;20466;-68
2023/03/12 00:37:21;;;;;;;3.60;1.73;;;2.90;99.90;;;;;;5014662;28;20218;-68
2023/03/12 00:39:47;;;;;;;2.40;1.90;;;2.90;99.90;;;;;;5013786;28;20505;-69
2023/03/12 00:42:12;;;;;;;6.23;1.80;;;2.90;99.90;;;;;;5014936;28;20497;-68
2023/03/12 00:44:38;;;;;;;4.27;1.83;;;2.80;99.90;;;;;;5013629;28;20246;-68
2023/03/12 00:47:04;;;;;;;2.23;2.03;;;2.80;99.90;;;;;;5030194;28;20219;-69
2023/03/12 00:49:30;;;;;;;2.10;1.73;;;2.80;99.90;;;;;;5014717;28;20712;-69
2023/03/12 00:51:55;;;;;;;4.03;2.23;;;2.80;99.90;;;;;;5011437;28;20882;-68
2023/03/12 00:54:21;;;;;;;5.00;2.17;;;2.80;99.90;;;;;;5011386;28;20218;-69
2023/03/12 00:56:47;;;;;;;2.53;2.07;;;2.80;99.90;;;;;;5026999;28;20310;-68
2023/03/12 00:59:14;;;;;;;2.60;2.17;;;2.80;99.90;;;;;;5031636;28;20207;-68
2023/03/12 01:01:41;;;;;;;4.20;2.10;;;2.80;99.90;;;;;;5012607;28;20225;-68
2023/03/12 01:04:07;;;;;;;2.73;2.30;;;2.80;99.90;;;;;;5026391;28;20462;-69
2023/03/12 01:06:33;;;;;;;2.83;2.30;;;2.70;99.90;;;;;;5030213;28;20466;-68
2023/03/12 01:09:01;;;;;;;9.43;3.20;;;2.70;99.90;;;;;;5030831;28;20841;-68
2023/03/12 01:11:28;;;;;;;6.80;2.43;;;2.80;99.90;;;;;;5014479;28;20515;-69
2023/03/12 01:13:54;;;;;;;1.70;1.60;;;2.80;99.90;;;;;;5048996;28;20842;-68
2023/03/12 01:16:26;;;;;;;2.13;1.70;;;2.80;99.90;;;;;;5028784;28;20515;-69
2023/03/12 01:18:53;;;;;;;2.40;2.17;;;2.70;99.90;;;;;;5026938;28;20490;-69
2023/03/12 01:21:19;;;;;;;1.70;1.60;;;2.70;99.90;;;;;;5031147;28;20454;-69
2023/03/12 01:23:45;;;;;;;2.53;2.33;;;2.70;99.90;;;;;;5014590;28;20496;-68
2023/03/12 01:26:11;;;;;;;1.90;1.70;;;2.70;99.90;;;;;;5031499;28;20822;-69
2023/03/12 01:28:36;;;;;;;1.77;1.67;;;2.70;99.90;;;;;;5030743;28;20257;-68
2023/03/12 01:31:10;;;;;;;2.07;1.80;;;2.70;99.90;;;;;;5012801;28;20203;-69
2023/03/12 01:33:36;;;;;;;4.53;1.70;;;2.70;99.90;;;;;;5047251;28;20548;-69
2023/03/12 01:36:01;;;;;;;2.50;2.17;;;2.70;99.90;;;;;;5013472;28;20463;-69
2023/03/12 01:38:27;;;;;;;2.03;1.90;;;2.70;99.90;;;;;;5030099;28;20217;-69
2023/03/12 01:40:53;;;;;;;2.00;1.90;;;2.70;99.90;;;;;;5043131;28;20215;-68
2023/03/12 01:43:29;;;;;;;1.77;1.67;;;2.70;99.90;;;;;;5048678;28;20214;-68
2023/03/12 01:46:18;;;;;;;2.50;1.53;;;2.70;99.90;;;;;;5009848;28;20235;-69
2023/03/12 01:48:50;;;;;;;2.93;2.00;;;2.70;99.90;;;;;;5024065;28;20460;-69
2023/03/12 01:51:17;;;;;;;1.80;1.63;;;2.70;99.90;;;;;;5044619;28;20532;-69
2023/03/12 01:53:46;;;;;;;3.37;2.10;;;2.60;99.90;;;;;;5048204;28;20450;-69
2023/03/12 01:56:13;;;;;;;1.93;1.83;;;2.70;99.90;;;;;;5026018;28;20545;-68
2023/03/12 01:58:44;;;;;;;3.13;2.27;;;2.70;99.90;;;;;;5012341;28;20453;-68
2023/03/12 02:01:10;;;;;;;1.70;1.60;;;2.70;99.90;;;;;;5026685;28;20462;-69
2023/03/12 02:03:36;;;;;;;2.10;2.00;;;2.70;99.90;;;;;;5029056;28;22822;-70
2023/03/12 02:06:07;;;;;;;1.90;1.70;;;2.70;99.90;;;;;;5013065;28;20223;-69
2023/03/12 02:08:41;;;;;;;1.70;1.60;;;2.70;99.90;;;;;;5023403;28;20524;-69
2023/03/12 02:11:07;;;;;;;1.90;1.70;;;2.70;99.90;;;;;;5031101;28;20466;-68
2023/03/12 02:13:32;;;;;;;2.40;1.90;;;2.70;99.90;;;;;;5019546;28;20468;-69
2023/03/12 02:15:59;;;;;;;1.70;1.53;;;2.70;99.90;;;;;;5013486;28;20229;-69
2023/03/12 02:18:26;;;;;;;4.20;2.17;;;2.70;99.90;;;;;;5029907;28;20218;-69
2023/03/12 02:21:12;;;;;;;3.43;1.90;;;2.70;99.90;;;;;;5025818;28;20465;-69
2023/03/12 02:24:07;;;;;;;2.37;2.17;;;2.70;99.90;;;;;;5030282;28;20477;-69
2023/03/12 02:26:35;;;;;;;1.63;1.50;;;2.70;99.90;;;;;;5011151;28;20485;-69
2023/03/12 02:29:02;;;;;;;6.90;2.00;;;2.70;99.90;;;;;;5013775;28;20446;-69
2023/03/12 02:31:34;;;;;;;2.03;1.90;;;2.70;99.90;;;;;;5029821;28;20437;-69
2023/03/12 02:33:59;;;;;;;10.13;1.97;;;2.70;99.90;;;;;;5026616;28;20548;-68
2023/03/12 02:36:26;;;;;;;2.63;1.87;;;2.70;99.90;;;;;;5013722;28;20450;-68
2023/03/12 02:38:52;;;;;;;2.13;1.93;;;2.70;99.90;;;;;;5026147;28;20239;-69
2023/03/12 02:41:30;;;;;;;2.20;1.90;;;2.70;99.90;;;;;;5011120;28;20453;-70
2023/03/12 02:44:07;;;;;;;5.30;2.33;;;2.70;99.90;;;;;;5028552;28;20469;-70
2023/03/12 02:46:37;;;;;;;2.63;2.43;;;2.70;99.90;;;;;;5033122;28;20495;-69
2023/03/12 02:49:03;;;;;;;2.13;1.80;;;2.70;99.90;;;;;;5051549;28;20466;-69
2023/03/12 02:51:29;;;;;;;2.07;1.80;;;2.70;99.90;;;;;;5033850;28;20453;-69
2023/03/12 02:53:54;;;;;;;3.13;2.40;;;2.70;99.90;;;;;;5044509;28;20510;-69
2023/03/12 02:56:26;;;;;;;2.37;2.17;;;2.70;99.90;;;;;;5025096;28;20693;-69
2023/03/12 02:58:53;;;;;;;2.17;1.97;;;2.70;99.90;;;;;;5009928;28;21009;-68
2023/03/12 03:01:19;;;;;;;2.30;1.80;;;2.70;99.90;;;;;;5030065;28;20540;-69
2023/03/12 03:03:45;;;;;;;1.97;1.87;;;2.70;99.90;;;;;;5030633;28;20449;-69
2023/03/12 03:06:11;;;;;;;2.60;2.37;;;2.70;99.90;;;;;;5032610;28;20564;-69
2023/03/12 03:08:37;;;;;;;2.43;2.23;;;2.70;99.90;;;;;;5015827;28;20491;-69
2023/03/12 03:11:04;;;;;;;2.60;2.40;;;2.70;99.90;;;;;;5033797;28;20475;-70
2023/03/12 03:13:30;;;;;;;2.60;2.23;;;2.80;99.90;;;;;;5033094;28;20468;-69
2023/03/12 03:15:57;;;;;;;2.57;2.30;;;2.80;99.90;;;;;;5006292;28;20454;-69
2023/03/12 03:18:23;;;;;;;2.43;2.00;;;2.80;99.90;;;;;;5024754;28;20459;-69
2023/03/12 03:20:57;;;;;;;2.00;1.80;;;2.80;99.90;;;;;;5016948;28;20446;-69
2023/03/12 03:23:23;;;;;;;2.40;2.17;;;2.80;99.90;;;;;;5030726;28;20523;-70
2023/03/12 03:25:51;;;;;;;1.93;1.83;;;2.70;99.90;;;;;;5032518;28;20507;-69
2023/03/12 03:28:23;;;;;;;2.23;2.03;;;2.70;99.90;;;;;;5016011;28;20219;-69
2023/03/12 03:30:51;;;;;;;2.13;1.93;;;2.80;99.90;;;;;;5030226;28;20461;-69
2023/03/12 03:33:17;;;;;;;2.17;1.80;;;2.70;99.90;;;;;;5032761;28;20466;-69
2023/03/12 03:35:42;;;;;;;3.47;2.23;;;2.70;99.90;;;;;;5014132;28;20457;-68
2023/03/12 03:38:08;;;;;;;4.33;3.00;;;2.70;99.90;;;;;;5013157;28;20214;-69
2023/03/12 03:40:34;;;;;;;4.47;2.50;;;2.70;99.90;;;;;;5031428;28;20539;-69
2023/03/12 03:43:00;;;;;;;4.10;2.80;;;2.70;99.90;;;;;;5033011;28;20982;-69
2023/03/12 03:45:26;;;;;;;3.50;2.73;;;2.70;99.90;;;;;;5025473;28;20235;-70
2023/03/12 03:47:53;;;;;;;3.77;2.20;;;2.70;99.90;;;;;;5004821;28;20207;-69
2023/03/12 03:50:19;;;;;;;2.87;2.37;;;2.70;99.90;;;;;;5014980;28;20462;-70
2023/03/12 03:52:45;;;;;;;2.97;2.40;;;2.70;99.90;;;;;;5013514;28;20932;-68
2023/03/12 03:55:11;;;;;;;3.30;2.20;;;2.70;99.90;;;;;;5015752;28;20512;-69
2023/03/12 03:57:38;;;;;;;2.33;1.97;;;2.70;99.90;;;;;;5025613;28;20446;-68
2023/03/12 04:00:08;;;;;;;3.00;2.03;;;2.70;99.90;;;;;;5028664;28;20463;-69
2023/03/12 04:02:39;;;;;;;4.17;2.40;;;2.70;99.90;;;;;;5032520;28;20452;-69
2023/03/12 04:05:07;;;;;;;4.77;2.90;;;2.70;99.90;;;;;;5028455;28;20557;-69
2023/03/12 04:07:33;;;;;;;2.10;1.87;;;2.70;99.90;;;;;;5026440;28;20461;-68
2023/03/12 04:09:59;;;;;;;2.50;2.30;;;2.70;99.90;;;;;;5015603;28;20462;-69
2023/03/12 04:12:26;;;;;;;2.83;2.10;;;2.70;99.90;;;;;;5031338;28;20468;-69
2023/03/12 04:14:53;;;;;;;3.10;2.00;;;2.70;99.90;;;;;;5001547;28;20458;-68
2023/03/12 04:17:19;;;;;;;5.33;2.30;;;2.70;99.90;;;;;;5024173;28;20455;-69
2023/03/12 04:19:45;;;;;;;2.70;1.97;;;2.70;99.90;;;;;;5020017;28;20528;-68
2023/03/12 04:22:10;;;;;;;3.23;2.70;;;2.70;99.90;;;;;;5030643;28;20254;-69
2023/03/12 04:24:36;;;;;;;2.73;2.37;;;2.70;99.90;;;;;;5031235;28;20299;-69
2023/03/12 04:27:02;;;;;;;4.03;2.37;;;2.70;99.90;;;;;;5025944;28;20220;-69
2023/03/12 04:29:28;;;;;;;5.70;2.43;;;2.70;99.90;;;;;;5029807;28;20250;-69
2023/03/12 04:31:55;;;;;;;3.90;3.00;;;2.70;99.90;;;;;;5008972;28;20457;-68
2023/03/12 04:34:21;;;;;;;3.20;2.80;;;2.70;99.90;;;;;;5020180;28;20466;-69
2023/03/12 04:36:49;;;;;;;3.17;2.40;;;2.70;99.90;;;;;;5028597;28;20481;-69
2023/03/12 04:39:19;;;;;;;5.63;3.80;;;2.70;99.90;;;;;;5031810;28;20492;-69
2023/03/12 04:41:47;;;;;;;4.50;3.17;;;2.70;99.90;;;;;;5014537;28;20448;-69
2023/03/12 04:44:14;;;;;;;7.43;4.53;;;2.70;99.90;;;;;;5011966;28;20462;-69
2023/03/12 04:46:41;;;;;;;5.77;4.20;;;2.70;99.90;;;;;;5030718;28;20446;-69
2023/03/12 04:49:09;;;;;;;5.33;3.43;;;2.70;99.90;;;;;;5018698;28;20436;-69
2023/03/12 04:51:36;;;;;;;6.87;4.73;;;2.70;99.90;;;;;;5028812;28;20458;-69
2023/03/12 04:54:03;;;;;;;6.50;3.40;;;2.70;99.90;;;;;;5028446;28;20459;-69
2023/03/12 04:56:29;;;;;;;6.00;4.23;;;2.70;99.90;;;;;;5028900;28;20500;-69
2023/03/12 04:58:55;;;;;;;5.67;4.23;;;2.70;99.90;;;;;;5030269;28;20217;-69
2023/03/12 05:01:24;;;;;;;7.63;4.90;;;2.70;99.90;;;;;;5030692;28;20249;-69
2023/03/12 05:03:50;;;;;;;11.57;5.30;;;2.70;99.90;;;;;;5031241;28;20457;-69
2023/03/12 05:06:16;;;;;;;7.67;5.00;;;2.60;99.90;;;;;;5015065;28;20469;-68
2023/03/12 05:08:42;;;;;;;8.83;4.87;;;2.60;99.90;;;;;;5011611;28;20447;-68
2023/03/12 05:11:08;;;;;;;5.90;4.77;;;2.60;99.90;;;;;;5039274;28;20456;-70
2023/03/12 05:13:33;;;;;;;5.03;4.43;;;2.60;99.90;;;;;;5016824;28;20710;-69
2023/03/12 05:15:59;;;;;;;8.73;4.80;;;2.60;99.90;;;;;;5014341;28;20222;-69
2023/03/12 05:18:25;;;;;;;8.90;4.27;;;2.70;99.90;;;;;;5025364;28;20257;-69
2023/03/12 05:21:14;;;;;;;6.67;4.03;;;2.60;99.90;;;;;;5019923;28;20212;-69
2023/03/12 05:23:41;;;;;;;13.27;5.50;;;2.60;99.90;;;;;;5029180;28;20460;-68
2023/03/12 05:26:23;;;;;;;3.90;3.50;;;2.60;99.90;;;;;;5026580;28;20470;-69
2023/03/12 05:28:51;;;;;;;4.47;3.47;;;2.60;99.90;;;;;;5011606;28;20457;-68
2023/03/12 05:31:19;;;;;;;5.70;3.10;;;2.50;99.90;;;;;;5013980;28;20492;-69
2023/03/12 05:33:45;;;;;;;3.97;3.53;;;2.50;99.90;;;;;;5027609;28;20468;-68
2023/03/12 05:36:13;;;;;;;5.40;3.60;;;2.60;99.90;;;;;;5012348;28;20462;-68
2023/03/12 05:38:39;;;;;;;3.93;3.27;;;2.50;99.90;;;;;;5028214;28;20461;-69
2023/03/12 05:41:05;;;;;;;6.90;3.87;;;2.50;99.90;;;;;;5024533;28;21000;-67
2023/03/12 05:43:34;;;;;;;3.83;3.40;;;2.60;99.90;;;;;;5029971;28;20496;-67
2023/03/12 05:46:03;;;;;;;5.60;4.37;;;2.60;99.90;;;;;;5030684;28;20473;-66
2023/03/12 05:48:30;;;;;;;4.87;3.87;;;2.50;99.90;;;;;;5024954;28;20454;-67
2023/03/12 05:50:56;;;;;;;8.60;4.47;;;2.40;99.90;;;;;;5008951;28;20511;-68
2023/03/12 05:53:22;;;;;;;4.83;4.00;;;2.50;99.90;;;;;;5030421;28;20496;-67
2023/03/12 05:55:48;;;;;;;7.17;4.60;;;2.50;99.90;;;;;;5014153;28;20779;-67
2023/03/12 05:58:14;;;;;;;7.37;4.67;;;2.40;99.90;;;;;;5011162;28;20534;-67
2023/03/12 06:00:40;;;;;;;5.80;3.90;;;2.50;99.90;;;;;;5023722;28;20711;-66
2023/03/12 06:03:07;;;;;;;6.03;4.77;;;2.50;99.90;;;;;;5029207;28;20217;-67
2023/03/12 06:05:35;;;;;;;9.03;4.97;;;2.50;99.90;;;;;;5021189;28;20473;-67
2023/03/12 06:08:02;;;;;;;8.20;5.53;;;2.50;99.90;;;;;;5029598;28;20453;-68
2023/03/12 06:10:28;;;;;;;7.03;4.93;;;2.60;99.90;;;;;;5013950;28;20457;-69
2023/03/12 06:12:54;;;;;;;5.77;4.60;;;2.60;99.90;;;;;;5022861;28;20449;-67
2023/03/12 06:15:20;;;;;;;6.73;4.80;;;2.60;99.90;;;;;;5021590;28;20505;-68
2023/03/12 06:17:46;;;;;;;6.43;4.27;;;2.60;99.90;;;;;;5010087;28;20215;-68
2023/03/12 06:20:12;;;;;;;7.23;4.57;;;2.60;99.90;;;;;;5010250;28;20455;-68
2023/03/12 06:22:37;;;;;;;7.90;4.60;;;2.60;99.90;;;;;;5033822;28;20239;-69
2023/03/12 06:25:03;;;;;;;5.53;4.37;;;2.60;99.90;;;;;;5033482;28;20230;-68
2023/03/12 06:27:29;;;;;;;5.63;4.77;;;2.60;99.90;;;;;;5015264;28;20559;-69
2023/03/12 06:29:55;;;;;;;4.83;4.30;;;2.60;99.90;;;;;;5030175;28;20541;-68
2023/03/12 06:32:21;;;;;;;4.23;3.70;;;2.60;99.90;;;;;;5016956;28;20468;-67
2023/03/12 06:34:47;;;;;;;7.83;5.10;;;2.60;99.90;;;;;;5033978;28;20465;-68
2023/03/12 06:37:12;;;;;;;4.60;4.17;;;2.60;99.90;;;;;;5033398;28;20215;-67
2023/03/12 06:39:38;;;;;;;4.07;3.77;;;2.50;99.90;;;;;;5028237;28;20747;-68
2023/03/12 06:42:04;;;;;;;8.80;4.63;;;2.40;99.90;;;;;;5027869;28;20305;-68
2023/03/12 06:44:30;;;;;;;7.40;4.00;;;2.40;99.90;;;;;;5015267;28;20229;-69
2023/03/12 06:46:56;;;;;;;6.47;4.60;;;2.40;99.90;;;;;;5033477;28;20517;-67
2023/03/12 06:49:23;;;;;;;6.00;3.53;;;2.50;99.90;;;;;;5017068;28;20435;-68
2023/03/12 06:51:49;;;;;;;3.33;3.10;;;2.40;99.90;;;;;;5050358;28;20457;-67
2023/03/12 06:54:15;;;;;;;4.20;3.60;;;2.40;99.90;;;;;;5031143;28;20464;-68
2023/03/12 06:56:41;;;;;;;4.10;3.60;;;2.50;99.90;;;;;;5045382;28;20453;-66
2023/03/12 06:59:07;;;;;;;3.37;3.10;;;2.60;99.90;;;;;;5012263;28;20469;-67
2023/03/12 07:01:32;;;;;;;5.83;3.87;;;2.70;99.90;;;;;;5028775;28;20454;-68
2023/03/12 07:03:58;;;;;;;6.80;4.90;;;2.70;99.90;;;;;;5028077;28;20219;-67
2023/03/12 07:06:24;;;;;;;15.23;10.87;;;2.70;99.90;;;;;;5019744;28;20254;-68
2023/03/12 07:08:50;;;;;;;21.03;13.33;;;2.70;99.90;;;;;;5025033;28;20226;-67
2023/03/12 07:11:16;;;;;;;14.40;12.80;;;2.70;99.90;;;;;;5017167;28;20219;-68
2023/03/12 07:13:42;;;;;;;12.30;9.83;;;2.60;99.90;;;;;;5032512;28;20322;-67
2023/03/12 07:16:08;;;;;;;9.97;8.93;;;2.60;99.90;;;;;;5044423;28;20545;-68
2023/03/12 07:18:34;;;;;;;8.90;8.00;;;2.70;99.90;;;;;;5027658;28;20594;-68
2023/03/12 07:21:00;;;;;;;10.23;5.90;;;2.70;99.90;;;;;;5040598;28;21046;-67
2023/03/12 07:23:26;;;;;;;6.50;5.47;;;2.70;99.90;;;;;;5029300;28;20219;-67
2023/03/12 07:25:52;;;;;;;7.97;6.13;;;2.70;99.90;;;;;;5030635;28;20376;-67
2023/03/12 07:28:18;;;;;;;8.33;5.07;;;2.80;99.90;;;;;;5011287;28;20224;-67
2023/03/12 07:30:49;;;;;;;6.07;5.03;;;2.70;99.90;;;;;;5029789;28;20454;-68
2023/03/12 07:33:17;;;;;;;6.13;4.87;;;2.80;99.90;;;;;;5046720;28;20592;-67
2023/03/12 07:35:45;;;;;;;8.27;5.40;;;2.80;99.90;;;;;;5032461;28;20990;-67
2023/03/12 07:38:10;;;;;;;5.90;4.97;;;2.80;99.90;;;;;;5025312;28;20466;-67
2023/03/12 07:40:36;;;;;;;10.57;5.03;;;2.80;99.90;;;;;;5026754;28;20669;-68
2023/03/12 07:43:05;;;;;;;9.70;6.20;;;2.70;99.90;;;;;;5029958;28;20230;-67
2023/03/12 07:45:31;;;;;;;8.77;6.83;;;2.80;99.90;;;;;;5014908;28;20734;-68
2023/03/12 07:47:57;;;;;;;7.30;6.40;;;2.70;99.90;;;;;;5032219;28;20529;-67
2023/03/12 07:50:23;;;;;;;8.60;6.43;;;2.80;99.90;;;;;;5050181;28;20211;-67
2023/03/12 07:52:48;;;;;;;9.20;5.53;;;2.80;99.90;;;;;;5026069;28;20830;-67
2023/03/12 07:55:15;;;;;;;7.17;5.60;;;2.80;99.90;;;;;;5011249;28;20687;-67
2023/03/12 07:57:41;;;;;;;8.93;4.73;;;2.80;99.90;;;;;;5043788;28;20723;-66
2023/03/12 08:00:09;;;;;;;7.97;5.60;;;2.80;99.90;;;;;;5014508;28;20553;-67
2023/03/12 08:02:37;;;;;;;6.73;5.50;;;2.80;99.90;;;;;;5049862;28;21724;-67
2023/03/12 08:05:03;;;;;;;6.87;4.63;;;2.80;99.90;;;;;;5027313;28;20487;-68
2023/03/12 08:07:31;;;;;;;6.00;4.63;;;2.90;99.90;;;;;;5028731;28;20265;-68
2023/03/12 08:10:06;;;;;;;4.73;3.97;;;2.90;99.90;;;;;;5044267;28;20469;-68
2023/03/12 08:12:32;;;;;;;6.63;4.33;;;2.90;99.90;;;;;;5048872;28;20543;-68
2023/03/12 08:14:57;;;;;;;9.17;5.63;;;2.90;99.90;;;;;;5026707;28;20469;-67
2023/03/12 08:17:23;;;;;;;5.50;4.57;;;2.90;99.90;;;;;;5028287;28;20242;-67
2023/03/12 08:19:49;;;;;;;4.20;3.80;;;2.90;99.90;;;;;;5032225;28;20242;-68
2023/03/12 08:22:15;;;;;;;5.47;3.83;;;3.00;99.90;;;;;;5028753;28;20501;-68
2023/03/12 08:24:40;;;;;;;5.23;4.73;;;3.00;99.90;;;;;;5031132;28;20230;-68
2023/03/12 08:27:06;;;;;;;6.83;5.57;;;3.00;99.90;;;;;;5048493;28;20207;-67
2023/03/12 08:29:32;;;;;;;7.33;4.80;;;3.00;99.90;;;;;;5028153;28;20594;-67
2023/03/12 08:31:58;;;;;;;11.67;5.80;;;3.00;99.90;;;;;;5031618;28;20297;-68
2023/03/12 08:34:24;;;;;;;8.97;4.90;;;3.00;99.90;;;;;;5029125;28;20503;-67
2023/03/12 08:36:50;;;;;;;9.87;5.63;;;3.00;99.90;;;;;;5029439;28;20450;-69
2023/03/12 08:39:16;;;;;;;5.93;5.33;;;3.00;99.90;;;;;;5012216;28;20219;-67
2023/03/12 08:41:41;;;;;;;9.97;6.10;;;3.00;99.90;;;;;;5027028;28;20221;-66
2023/03/12 08:44:07;;;;;;;6.67;5.47;;;3.00;99.90;;;;;;5049794;28;20222;-67
2023/03/12 08:46:33;;;;;;;6.07;4.97;;;3.00;99.90;;;;;;5009717;28;20231;-67
2023/03/12 08:48:59;;;;;;;8.90;6.30;;;3.00;99.90;;;;;;5031007;28;20231;-67
2023/03/12 08:51:25;;;;;;;11.47;7.27;;;3.00;99.90;;;;;;5043981;28;20474;-68
2023/03/12 08:53:50;;;;;;;12.23;7.83;;;3.00;99.90;;;;;;5048670;28;20259;-68
2023/03/12 08:56:16;;;;;;;11.10;7.10;;;2.90;99.90;;;;;;5013957;28;20288;-67
2023/03/12 08:58:42;;;;;;;8.83;7.27;;;2.90;99.90;;;;;;5030404;28;20206;-67
2023/03/12 09:01:12;;;;;;;12.10;7.43;;;2.90;99.90;;;;;;5014451;28;20221;-67
2023/03/12 09:03:39;;;;;;;10.33;7.50;;;2.90;99.90;;;;;;5013918;28;20245;-68
2023/03/12 09:06:11;;;;;;;12.73;7.63;;;2.90;99.90;;;;;;5012193;28;20520;-69
2023/03/12 09:08:40;;;;;;;13.70;9.00;;;2.80;99.90;;;;;;5025350;28;20436;-68
2023/03/12 09:11:08;;;;;;;10.07;8.27;;;2.90;99.90;;;;;;5014505;28;20464;-67
2023/03/12 09:13:34;;;;;;;15.27;8.53;;;2.90;99.90;;;;;;5026848;28;20469;-67
2023/03/12 09:16:01;;;;;;;13.00;7.87;;;2.90;99.90;;;;;;5043958;28;20474;-67
2023/03/12 09:18:27;;;;;;;9.60;6.90;;;2.90;99.90;;;;;;5046223;28;20240;-67
2023/03/12 09:20:53;;;;;;;8.00;7.00;;;2.70;99.90;;;;;;5032978;28;20532;-66
2023/03/12 09:23:19;;;;;;;13.40;7.90;;;2.70;99.90;;;;;;5029602;28;21097;-68
2023/03/12 09:25:45;;;;;;;11.00;7.70;;;2.80;99.90;;;;;;5029921;28;20309;-66
2023/03/12 09:28:11;;;;;;;14.90;9.20;;;2.80;99.90;;;;;;5048531;28;20210;-67
2023/03/12 09:30:37;;;;;;;11.77;7.23;;;2.90;99.90;;;;;;5013712;28;20473;-67
2023/03/12 09:33:03;;;;;;;11.23;7.83;;;3.00;99.90;;;;;;5012918;28;20286;-67
2023/03/12 09:35:30;;;;;;;10.33;7.27;;;3.00;99.90;;;;;;5013257;28;20218;-68
2023/03/12 09:37:56;;;;;;;10.33;7.03;;;3.00;99.90;;;;;;5048175;28;20235;-67
2023/03/12 09:40:25;;;;;;;11.20;8.20;;;3.00;99.90;;;;;;5013395;28;20461;-67
2023/03/12 09:43:24;;;;;;;12.03;6.87;;;3.00;99.90;;;;;;5029462;28;20450;-67
2023/03/12 09:45:50;;;;;;;7.50;5.77;;;3.10;99.90;;;;;;5023236;28;20476;-67
2023/03/12 09:48:24;;;;;;;12.10;8.00;;;3.10;99.90;;;;;;5011008;28;20462;-67
2023/03/12 09:50:51;;;;;;;11.67;7.27;;;3.10;99.90;;;;;;5042907;28;20466;-67
2023/03/12 09:53:32;;;;;;;11.03;7.50;;;3.10;99.90;;;;;;5010525;28;20496;-69
2023/03/12 09:56:01;;;;;;;9.20;6.10;;;3.20;99.90;;;;;;5003749;28;20541;-67
2023/03/12 09:58:32;;;;;;;10.70;7.10;;;3.20;99.90;;;;;;5030196;28;20493;-67
2023/03/12 10:01:11;;;;;;;11.57;7.83;;;3.30;99.90;;;;;;5034267;28;20487;-67
2023/03/12 10:04:10;;;;;;;17.67;6.80;;;3.30;99.90;;;;;;5032426;28;21084;-68
2023/03/12 10:06:42;;;;;;;9.13;6.37;;;3.30;99.90;;;;;;5028369;28;20469;-68
2023/03/12 10:09:44;;;;;;;9.40;6.57;;;3.30;99.90;;;;;;5014466;28;20475;-67
2023/03/12 10:12:27;;;;;;;10.60;6.20;;;3.40;99.90;;;;;;5026829;28;20550;-68
2023/03/12 10:15:05;;;;;;;14.40;6.90;;;3.30;99.90;;;;;;5013810;28;20449;-67
2023/03/12 10:17:52;;;;;;;9.70;6.40;;;3.40;99.90;;;;;;5018219;28;20524;-67
2023/03/12 10:21:00;;;;;;;11.87;6.30;;;3.40;99.90;;;;;;5008268;28;20458;-67
2023/03/12 10:23:40;;;;;;;12.67;6.20;;;3.40;99.90;;;;;;5012485;28;20466;-67
2023/03/12 10:26:21;;;;;;;24.63;14.07;;;3.50;99.90;;;;;;5019376;28;20488;-67
2023/03/12 10:28:52;;;;;;;99.47;36.93;;;3.50;99.90;;;;;;5025542;28;20453;-67
2023/03/12 10:31:25;;;;;;;75.97;31.37;;;3.40;99.90;;;;;;5024026;28;20468;-68
2023/03/12 10:33:55;;;;;;;99.40;40.63;;;3.40;99.90;;;;;;5028893;28;20456;-68
2023/03/12 10:36:43;;;;;;;99.43;45.40;;;3.50;99.90;;;;;;5033024;28;20465;-68
2023/03/12 10:39:15;;;;;;;88.47;40.47;;;3.60;99.90;;;;;;5020536;28;20601;-67
2023/03/12 10:41:43;;;;;;;70.27;34.00;;;3.60;99.90;;;;;;5016659;28;20452;-67
2023/03/12 10:44:17;;;;;;;44.23;21.93;;;3.70;99.90;;;;;;5021153;28;20491;-68
2023/03/12 10:47:03;;;;;;;33.07;16.57;;;3.70;99.90;;;;;;5050731;28;20486;-67
2023/03/12 10:49:35;;;;;;;20.63;12.30;;;3.70;99.90;;;;;;5027929;28;20589;-69
2023/03/12 10:52:21;;;;;;;21.03;11.87;;;3.80;99.90;;;;;;5048729;28;20479;-68
2023/03/12 10:54:50;;;;;;;20.00;10.63;;;3.80;99.90;;;;;;5020615;28;20817;-68
2023/03/12 10:57:16;;;;;;;13.63;5.50;;;3.90;99.90;;;;;;5023939;28;20528;-68
2023/03/12 10:59:45;;;;;;;10.40;5.57;;;3.90;99.90;;;;;;5011845;28;20845;-69
2023/03/12 11:02:32;;;;;;;11.03;6.23;;;4.00;99.90;;;;;;5020493;28;20453;-68
2023/03/12 11:04:59;;;;;;;12.20;5.87;;;4.00;99.90;;;;;;5031469;28;20848;-67
2023/03/12 11:07:34;;;;;;;11.33;4.87;;;4.10;99.90;;;;;;5049138;28;20473;-68
2023/03/12 11:10:05;;;;;;;11.40;5.20;;;4.20;99.90;;;;;;5051483;28;20482;-68
2023/03/12 11:12:34;;;;;;;7.73;5.37;;;4.20;99.90;;;;;;5016667;28;20492;-68
2023/03/12 11:15:18;;;;;;;9.83;4.67;;;4.30;99.90;;;;;;5032314;28;20468;-69
2023/03/12 11:17:44;;;;;;;8.03;5.87;;;4.40;99.90;;;;;;5023268;28;20472;-69
2023/03/12 11:20:27;;;;;;;8.07;5.43;;;4.50;99.90;;;;;;4994153;28;20471;-69
2023/03/12 11:22:53;;;;;;;12.13;5.57;;;4.60;99.90;;;;;;5031119;28;20254;-68
2023/03/12 11:25:28;;;;;;;9.60;6.50;;;4.70;99.90;;;;;;5036274;28;20516;-69
2023/03/12 11:28:01;;;;;;;14.00;6.77;;;4.80;99.90;;;;;;5035304;28;20246;-69
2023/03/12 11:30:38;;;;;;;8.17;5.20;;;4.90;99.90;;;;;;5004403;28;20540;-67
2023/03/12 11:33:05;;;;;;;6.63;5.00;;;5.00;99.90;;;;;;5015431;28;20470;-67
2023/03/12 11:35:54;;;;;;;8.90;6.17;;;5.10;99.90;;;;;;5016398;28;20541;-66
2023/03/12 11:38:34;;;;;;;9.27;6.00;;;5.10;99.90;;;;;;5029134;28;20461;-66
2023/03/12 11:41:18;;;;;;;9.47;6.57;;;5.20;99.90;;;;;;5032289;28;20473;-67
2023/03/12 11:43:58;;;;;;;7.93;5.67;;;5.20;99.90;;;;;;5012215;28;20479;-65
2023/03/12 11:46:51;;;;;;;8.07;5.90;;;5.30;99.90;;;;;;5016517;28;20527;-67
2023/03/12 11:49:24;;;;;;;6.33;5.37;;;5.40;99.90;;;;;;5030337;28;20460;-67
2023/03/12 11:52:14;;;;;;;10.90;9.00;;;5.50;99.90;;;;;;5014145;28;20516;-66
2023/03/12 11:55:04;;;;;;;10.07;8.10;;;5.60;99.90;;;;;;5014123;28;20437;-66
2023/03/12 11:57:45;;;;;;;11.10;7.50;;;5.70;99.90;;;;;;5022392;28;20968;-68
2023/03/12 12:00:16;;;;;;;12.50;7.50;;;5.90;99.90;;;;;;5012809;28;20962;-68
2023/03/12 12:03:09;;;;;;;10.17;6.57;;;5.90;99.90;;;;;;5020435;28;20462;-68
2023/03/12 12:05:57;;;;;;;10.03;6.63;;;6.20;99.90;;;;;;5011766;28;20498;-69
2023/03/12 12:08:47;;;;;;;10.10;6.40;;;6.30;99.90;;;;;;5033508;28;20520;-69
2023/03/12 12:11:18;;;;;;;8.90;6.80;;;6.40;99.90;;;;;;5017375;28;20935;-68
2023/03/12 12:14:10;;;;;;;8.40;7.50;;;6.50;99.90;;;;;;5017598;28;20449;-67
2023/03/12 12:16:38;;;;;;;12.00;8.67;;;6.60;99.90;;;;;;5027723;28;20460;-69
2023/03/12 12:19:04;;;;;;;14.70;8.23;;;6.70;99.90;;;;;;5025615;28;20539;-69
2023/03/12 12:21:48;;;;;;;12.43;7.83;;;6.80;99.90;;;;;;5038435;28;20462;-69
2023/03/12 12:24:36;;;;;;;12.80;7.83;;;6.80;99.90;;;;;;5031334;28;20238;-69
2023/03/12 12:27:01;;;;;;;11.20;7.63;;;6.80;99.90;;;;;;5025341;28;20527;-69
2023/03/12 12:29:50;;;;;;;12.97;7.37;;;6.80;99.90;;;;;;5028976;28;20457;-69
2023/03/12 12:32:40;;;;;;;13.70;7.40;;;6.80;99.90;;;;;;5031565;28;20456;-69
2023/03/12 12:35:34;;;;;;;12.57;7.50;;;6.90;99.90;;;;;;5054490;28;20527;-69
2023/03/12 12:38:34;;;;;;;14.50;7.87;;;7.00;99.90;;;;;;5031991;28;20476;-69
2023/03/12 12:41:08;;;;;;;17.83;9.07;;;7.10;99.90;;;;;;5047613;28;20465;-69
2023/03/12 12:43:39;;;;;;;19.93;13.00;;;7.10;99.90;;;;;;5031641;28;20467;-69
2023/03/12 12:46:13;;;;;;;28.40;15.37;;;7.10;99.90;;;;;;5027284;28;20469;-69
2023/03/12 12:48:45;;;;;;;20.37;15.93;;;7.20;99.90;;;;;;5012271;28;20441;-69
2023/03/12 12:51:13;;;;;;;18.27;12.67;;;7.20;99.90;;;;;;5028450;28;20466;-69
2023/03/12 12:53:50;;;;;;;14.13;12.60;;;7.20;99.90;;;;;;5039649;28;20457;-69
2023/03/12 12:56:31;;;;;;;17.93;12.03;;;7.20;99.90;;;;;;5009208;28;20535;-69
2023/03/12 12:59:05;;;;;;;13.17;10.33;;;7.20;99.90;;;;;;5022493;28;20461;-70
2023/03/12 13:01:34;;;;;;;13.73;9.37;;;7.30;99.90;;;;;;5020139;28;20466;-70
2023/03/12 13:04:14;;;;;;;12.60;9.83;;;7.40;99.90;;;;;;5015910;28;20874;-69
2023/03/12 13:07:02;;;;;;;12.50;8.33;;;7.30;99.90;;;;;;5047965;28;20456;-68